sensor_id;sensor_type;location;lat;lon;timestamp;temperature;humidity
23271;DHT22;11804;51.118;17.058;2022-07-29T00:01:50;17.50;70.00
23271;DHT22;11804;51.118;17.058;2022-07-29T00:04:19;17.40;70.60
23271;DHT22;11804;51.118;17.058;2022-07-29T00:06:46;17.50;70.80
23271;DHT22;11804;51.118;17.058;2022-07-29T00:09:14;17.50;70.90
23271;DHT22;11804;51.118;17.058;2022-07-29T00:11:41;17.40;71.70
23271;DHT22;11804;51.118;17.058;2022-07-29T00:14:09;17.40;72.10
23271;DHT22;11804;51.118;17.058;2022-07-29T00:16:37;17.30;72.60
23271;DHT22;11804;51.118;17.058;2022-07-29T00:19:09;17.20;73.00
23271;DHT22;11804;51.118;17.058;2022-07-29T00:21:36;17.30;73.10
23271;DHT22;11804;51.118;17.058;2022-07-29T00:24:04;17.40;73.00
23271;DHT22;11804;51.118;17.058;2022-07-29T00:26:32;17.40;73.20
23271;DHT22;11804;51.118;17.058;2022-07-29T00:29:01;17.40;73.40
23271;DHT22;11804;51.118;17.058;2022-07-29T00:31:28;17.40;73.70
23271;DHT22;11804;51.118;17.058;2022-07-29T00:33:56;17.20;74.70
23271;DHT22;11804;51.118;17.058;2022-07-29T00:36:24;17.10;75.70
23271;DHT22;11804;51.118;17.058;2022-07-29T00:38:52;17.10;76.60
23271;DHT22;11804;51.118;17.058;2022-07-29T00:41:20;17.10;76.40
23271;DHT22;11804;51.118;17.058;2022-07-29T00:43:48;17.00;77.30
23271;DHT22;11804;51.118;17.058;2022-07-29T00:46:15;17.00;77.90
23271;DHT22;11804;51.118;17.058;2022-07-29T00:48:43;16.90;78.70
23271;DHT22;11804;51.118;17.058;2022-07-29T00:51:11;17.10;78.80
23271;DHT22;11804;51.118;17.058;2022-07-29T00:53:39;17.10;78.50
23271;DHT22;11804;51.118;17.058;2022-07-29T00:56:07;17.10;78.70
23271;DHT22;11804;51.118;17.058;2022-07-29T00:58:34;17.10;78.90
23271;DHT22;11804;51.118;17.058;2022-07-29T01:01:02;17.10;79.50
23271;DHT22;11804;51.118;17.058;2022-07-29T01:03:29;17.00;80.50
23271;DHT22;11804;51.118;17.058;2022-07-29T01:05:57;16.90;81.50
23271;DHT22;11804;51.118;17.058;2022-07-29T01:08:25;17.00;81.70
23271;DHT22;11804;51.118;17.058;2022-07-29T01:10:53;17.00;81.90
23271;DHT22;11804;51.118;17.058;2022-07-29T01:13:22;17.00;82.10
23271;DHT22;11804;51.118;17.058;2022-07-29T01:16:01;16.90;82.80
23271;DHT22;11804;51.118;17.058;2022-07-29T01:18:35;16.90;83.20
23271;DHT22;11804;51.118;17.058;2022-07-29T01:26:59;17.10;82.40
23271;DHT22;11804;51.118;17.058;2022-07-29T01:29:45;16.90;84.50
23271;DHT22;11804;51.118;17.058;2022-07-29T01:32:20;17.00;84.50
23271;DHT22;11804;51.118;17.058;2022-07-29T01:34:58;16.90;85.60
23271;DHT22;11804;51.118;17.058;2022-07-29T01:37:27;16.90;86.30
23271;DHT22;11804;51.118;17.058;2022-07-29T01:39:57;16.80;87.40
23271;DHT22;11804;51.118;17.058;2022-07-29T01:45:36;16.80;88.30
23271;DHT22;11804;51.118;17.058;2022-07-29T01:48:07;16.70;89.90
23271;DHT22;11804;51.118;17.058;2022-07-29T01:50:38;16.80;89.50
23271;DHT22;11804;51.118;17.058;2022-07-29T01:53:09;16.60;90.80
23271;DHT22;11804;51.118;17.058;2022-07-29T01:55:42;16.50;91.60
23271;DHT22;11804;51.118;17.058;2022-07-29T01:58:11;16.40;92.50
23271;DHT22;11804;51.118;17.058;2022-07-29T02:00:40;16.30;93.40
23271;DHT22;11804;51.118;17.058;2022-07-29T02:03:11;16.20;94.80
23271;DHT22;11804;51.118;17.058;2022-07-29T02:05:42;16.10;95.80
23271;DHT22;11804;51.118;17.058;2022-07-29T02:08:11;16.10;96.70
23271;DHT22;11804;51.118;17.058;2022-07-29T02:10:41;16.10;97.20
23271;DHT22;11804;51.118;17.058;2022-07-29T02:13:11;16.10;97.00
23271;DHT22;11804;51.118;17.058;2022-07-29T02:15:40;16.20;97.10
23271;DHT22;11804;51.118;17.058;2022-07-29T02:18:16;16.10;98.30
23271;DHT22;11804;51.118;17.058;2022-07-29T02:20:48;16.00;98.60
23271;DHT22;11804;51.118;17.058;2022-07-29T02:23:19;16.00;99.50
23271;DHT22;11804;51.118;17.058;2022-07-29T02:25:49;16.10;99.30
23271;DHT22;11804;51.118;17.058;2022-07-29T02:28:17;16.20;98.70
23271;DHT22;11804;51.118;17.058;2022-07-29T02:30:47;16.20;98.40
23271;DHT22;11804;51.118;17.058;2022-07-29T02:33:16;16.30;97.90
23271;DHT22;11804;51.118;17.058;2022-07-29T02:35:47;16.30;98.10
23271;DHT22;11804;51.118;17.058;2022-07-29T02:38:16;16.20;98.50
23271;DHT22;11804;51.118;17.058;2022-07-29T02:41:13;16.10;99.50
23271;DHT22;11804;51.118;17.058;2022-07-29T02:43:43;16.10;99.90
23271;DHT22;11804;51.118;17.058;2022-07-29T02:46:14;15.90;99.90
23271;DHT22;11804;51.118;17.058;2022-07-29T02:48:51;16.10;99.90
23271;DHT22;11804;51.118;17.058;2022-07-29T02:51:30;16.10;99.60
23271;DHT22;11804;51.118;17.058;2022-07-29T02:53:57;16.10;99.00
23271;DHT22;11804;51.118;17.058;2022-07-29T02:56:27;16.10;99.80
23271;DHT22;11804;51.118;17.058;2022-07-29T02:59:01;16.10;99.90
23271;DHT22;11804;51.118;17.058;2022-07-29T03:01:31;16.20;99.20
23271;DHT22;11804;51.118;17.058;2022-07-29T03:04:03;16.10;99.60
23271;DHT22;11804;51.118;17.058;2022-07-29T03:06:32;16.00;99.90
23271;DHT22;11804;51.118;17.058;2022-07-29T03:09:02;15.90;99.90
23271;DHT22;11804;51.118;17.058;2022-07-29T03:11:29;16.00;99.90
23271;DHT22;11804;51.118;17.058;2022-07-29T03:13:57;16.00;99.90
23271;DHT22;11804;51.118;17.058;2022-07-29T03:16:25;16.10;99.90
23271;DHT22;11804;51.118;17.058;2022-07-29T03:18:53;16.10;99.90
23271;DHT22;11804;51.118;17.058;2022-07-29T03:21:21;16.00;99.90
23271;DHT22;11804;51.118;17.058;2022-07-29T03:23:49;15.80;99.90
23271;DHT22;11804;51.118;17.058;2022-07-29T03:26:16;15.90;99.90
23271;DHT22;11804;51.118;17.058;2022-07-29T03:28:44;15.90;99.90
23271;DHT22;11804;51.118;17.058;2022-07-29T03:31:11;16.20;99.90
23271;DHT22;11804;51.118;17.058;2022-07-29T03:33:39;16.50;99.20
23271;DHT22;11804;51.118;17.058;2022-07-29T03:36:06;16.60;98.30
23271;DHT22;11804;51.118;17.058;2022-07-29T03:38:36;16.30;99.80
23271;DHT22;11804;51.118;17.058;2022-07-29T03:41:07;16.20;99.90
23271;DHT22;11804;51.118;17.058;2022-07-29T03:43:37;16.20;99.90
23271;DHT22;11804;51.118;17.058;2022-07-29T03:46:07;16.20;99.90
23271;DHT22;11804;51.118;17.058;2022-07-29T03:48:39;16.30;99.90
23271;DHT22;11804;51.118;17.058;2022-07-29T03:51:06;16.30;99.90
23271;DHT22;11804;51.118;17.058;2022-07-29T03:53:34;16.40;99.90
23271;DHT22;11804;51.118;17.058;2022-07-29T03:56:03;16.50;99.70
23271;DHT22;11804;51.118;17.058;2022-07-29T03:58:33;16.40;99.90
23271;DHT22;11804;51.118;17.058;2022-07-29T04:01:02;16.30;99.90
23271;DHT22;11804;51.118;17.058;2022-07-29T04:03:30;16.30;99.90
23271;DHT22;11804;51.118;17.058;2022-07-29T04:06:02;16.40;99.90
23271;DHT22;11804;51.118;17.058;2022-07-29T04:08:32;16.20;99.90
23271;DHT22;11804;51.118;17.058;2022-07-29T04:11:01;16.20;99.90
23271;DHT22;11804;51.118;17.058;2022-07-29T04:13:28;16.20;99.90
23271;DHT22;11804;51.118;17.058;2022-07-29T04:15:56;16.40;99.90
23271;DHT22;11804;51.118;17.058;2022-07-29T04:18:27;16.60;99.90
23271;DHT22;11804;51.118;17.058;2022-07-29T04:20:54;16.50;99.90
23271;DHT22;11804;51.118;17.058;2022-07-29T04:23:22;16.70;99.60
23271;DHT22;11804;51.118;17.058;2022-07-29T04:25:49;16.90;98.70
23271;DHT22;11804;51.118;17.058;2022-07-29T04:28:17;17.30;96.70
23271;DHT22;11804;51.118;17.058;2022-07-29T04:30:45;18.60;91.40
23271;DHT22;11804;51.118;17.058;2022-07-29T04:33:13;19.60;83.50
23271;DHT22;11804;51.118;17.058;2022-07-29T04:35:40;19.80;80.50
23271;DHT22;11804;51.118;17.058;2022-07-29T04:38:08;19.60;78.80
23271;DHT22;11804;51.118;17.058;2022-07-29T04:40:35;19.30;81.20
23271;DHT22;11804;51.118;17.058;2022-07-29T04:43:03;18.90;82.40
23271;DHT22;11804;51.118;17.058;2022-07-29T04:45:30;18.70;84.00
23271;DHT22;11804;51.118;17.058;2022-07-29T04:47:58;19.50;80.30
23271;DHT22;11804;51.118;17.058;2022-07-29T04:50:26;19.90;79.70
23271;DHT22;11804;51.118;17.058;2022-07-29T04:52:53;20.40;75.10
23271;DHT22;11804;51.118;17.058;2022-07-29T04:55:21;21.20;71.40
23271;DHT22;11804;51.118;17.058;2022-07-29T04:57:49;21.40;70.20
23271;DHT22;11804;51.118;17.058;2022-07-29T05:00:17;22.80;64.60
23271;DHT22;11804;51.118;17.058;2022-07-29T05:02:45;23.80;60.40
23271;DHT22;11804;51.118;17.058;2022-07-29T05:05:12;22.90;60.10
23271;DHT22;11804;51.118;17.058;2022-07-29T05:07:40;21.30;66.60
23271;DHT22;11804;51.118;17.058;2022-07-29T05:10:09;21.40;66.30
23271;DHT22;11804;51.118;17.058;2022-07-29T05:12:38;21.90;65.20
23271;DHT22;11804;51.118;17.058;2022-07-29T05:15:07;21.30;64.40
23271;DHT22;11804;51.118;17.058;2022-07-29T05:17:34;20.40;70.00
23271;DHT22;11804;51.118;17.058;2022-07-29T05:20:02;20.30;71.50
23271;DHT22;11804;51.118;17.058;2022-07-29T05:22:30;19.50;74.20
23271;DHT22;11804;51.118;17.058;2022-07-29T05:24:57;19.70;75.10
23271;DHT22;11804;51.118;17.058;2022-07-29T05:27:25;19.70;73.90
23271;DHT22;11804;51.118;17.058;2022-07-29T05:29:52;19.70;74.70
23271;DHT22;11804;51.118;17.058;2022-07-29T05:32:20;19.90;73.50
23271;DHT22;11804;51.118;17.058;2022-07-29T05:34:47;19.50;75.00
23271;DHT22;11804;51.118;17.058;2022-07-29T05:37:15;19.40;76.70
23271;DHT22;11804;51.118;17.058;2022-07-29T05:39:42;19.10;78.60
23271;DHT22;11804;51.118;17.058;2022-07-29T05:42:10;19.30;78.50
23271;DHT22;11804;51.118;17.058;2022-07-29T05:44:39;19.30;78.40
23271;DHT22;11804;51.118;17.058;2022-07-29T05:47:06;19.40;78.20
23271;DHT22;11804;51.118;17.058;2022-07-29T05:49:34;20.10;75.70
23271;DHT22;11804;51.118;17.058;2022-07-29T05:52:01;20.40;74.20
23271;DHT22;11804;51.118;17.058;2022-07-29T05:54:29;20.40;73.50
23271;DHT22;11804;51.118;17.058;2022-07-29T05:56:57;20.40;73.50
23271;DHT22;11804;51.118;17.058;2022-07-29T05:59:24;20.10;75.00
23271;DHT22;11804;51.118;17.058;2022-07-29T06:01:52;20.60;74.00
23271;DHT22;11804;51.118;17.058;2022-07-29T06:04:20;21.60;69.60
23271;DHT22;11804;51.118;17.058;2022-07-29T06:06:47;21.70;67.90
23271;DHT22;11804;51.118;17.058;2022-07-29T06:09:15;21.10;69.00
23271;DHT22;11804;51.118;17.058;2022-07-29T06:11:42;20.60;71.60
23271;DHT22;11804;51.118;17.058;2022-07-29T06:14:10;20.90;71.00
23271;DHT22;11804;51.118;17.058;2022-07-29T06:16:38;20.70;72.50
23271;DHT22;11804;51.118;17.058;2022-07-29T06:19:05;21.80;68.80
23271;DHT22;11804;51.118;17.058;2022-07-29T06:21:33;23.10;64.70
23271;DHT22;11804;51.118;17.058;2022-07-29T06:24:00;24.10;60.10
23271;DHT22;11804;51.118;17.058;2022-07-29T06:26:28;24.10;58.70
23271;DHT22;11804;51.118;17.058;2022-07-29T06:28:55;23.30;60.00
23271;DHT22;11804;51.118;17.058;2022-07-29T06:31:23;22.10;63.60
23271;DHT22;11804;51.118;17.058;2022-07-29T06:33:50;21.90;66.00
23271;DHT22;11804;51.118;17.058;2022-07-29T06:36:19;22.00;66.10
23271;DHT22;11804;51.118;17.058;2022-07-29T06:38:46;21.90;66.10
23271;DHT22;11804;51.118;17.058;2022-07-29T06:41:14;22.40;65.60
23271;DHT22;11804;51.118;17.058;2022-07-29T06:43:43;23.20;62.00
23271;DHT22;11804;51.118;17.058;2022-07-29T06:46:13;22.60;64.00
23271;DHT22;11804;51.118;17.058;2022-07-29T06:48:43;22.70;63.60
23271;DHT22;11804;51.118;17.058;2022-07-29T06:51:11;22.10;64.00
23271;DHT22;11804;51.118;17.058;2022-07-29T06:53:39;22.40;64.70
23271;DHT22;11804;51.118;17.058;2022-07-29T06:56:07;22.80;62.70
23271;DHT22;11804;51.118;17.058;2022-07-29T06:58:37;23.40;60.20
23271;DHT22;11804;51.118;17.058;2022-07-29T07:01:06;23.80;59.10
23271;DHT22;11804;51.118;17.058;2022-07-29T07:03:33;24.40;57.30
23271;DHT22;11804;51.118;17.058;2022-07-29T07:06:01;23.60;58.00
23271;DHT22;11804;51.118;17.058;2022-07-29T07:08:29;23.50;58.20
23271;DHT22;11804;51.118;17.058;2022-07-29T07:10:57;22.80;59.60
23271;DHT22;11804;51.118;17.058;2022-07-29T07:13:25;22.20;61.30
23271;DHT22;11804;51.118;17.058;2022-07-29T07:15:53;22.10;62.10
23271;DHT22;11804;51.118;17.058;2022-07-29T07:18:20;22.00;62.80
23271;DHT22;11804;51.118;17.058;2022-07-29T07:20:48;22.30;62.40
23271;DHT22;11804;51.118;17.058;2022-07-29T07:23:15;22.90;60.70
23271;DHT22;11804;51.118;17.058;2022-07-29T07:25:43;23.30;59.50
23271;DHT22;11804;51.118;17.058;2022-07-29T07:28:10;23.60;58.70
23271;DHT22;11804;51.118;17.058;2022-07-29T07:30:39;24.70;56.60
23271;DHT22;11804;51.118;17.058;2022-07-29T07:33:06;24.80;55.00
23271;DHT22;11804;51.118;17.058;2022-07-29T07:35:34;23.60;57.60
23271;DHT22;11804;51.118;17.058;2022-07-29T07:38:02;22.90;59.50
23271;DHT22;11804;51.118;17.058;2022-07-29T07:40:31;22.80;60.20
23271;DHT22;11804;51.118;17.058;2022-07-29T07:42:58;22.90;59.70
23271;DHT22;11804;51.118;17.058;2022-07-29T07:45:26;22.90;59.80
23271;DHT22;11804;51.118;17.058;2022-07-29T07:47:54;22.90;60.30
23271;DHT22;11804;51.118;17.058;2022-07-29T07:50:22;23.00;60.70
23271;DHT22;11804;51.118;17.058;2022-07-29T07:52:52;23.00;60.80
23271;DHT22;11804;51.118;17.058;2022-07-29T07:55:21;23.30;60.20
23271;DHT22;11804;51.118;17.058;2022-07-29T07:57:49;23.30;60.20
23271;DHT22;11804;51.118;17.058;2022-07-29T08:00:17;23.20;60.50
23271;DHT22;11804;51.118;17.058;2022-07-29T08:02:44;23.20;60.60
23271;DHT22;11804;51.118;17.058;2022-07-29T08:05:12;23.00;60.70
23271;DHT22;11804;51.118;17.058;2022-07-29T08:07:43;23.20;60.10
23271;DHT22;11804;51.118;17.058;2022-07-29T08:10:12;23.50;59.50
23271;DHT22;11804;51.118;17.058;2022-07-29T08:12:40;23.20;60.30
23271;DHT22;11804;51.118;17.058;2022-07-29T08:15:08;23.60;60.40
23271;DHT22;11804;51.118;17.058;2022-07-29T08:17:36;23.70;59.20
23271;DHT22;11804;51.118;17.058;2022-07-29T08:20:04;24.10;58.50
23271;DHT22;11804;51.118;17.058;2022-07-29T08:22:32;24.10;58.40
23271;DHT22;11804;51.118;17.058;2022-07-29T08:24:59;24.70;58.10
23271;DHT22;11804;51.118;17.058;2022-07-29T08:27:27;24.60;57.00
23271;DHT22;11804;51.118;17.058;2022-07-29T08:29:56;24.90;57.60
23271;DHT22;11804;51.118;17.058;2022-07-29T08:32:23;25.50;55.60
23271;DHT22;11804;51.118;17.058;2022-07-29T08:34:51;25.20;55.50
23271;DHT22;11804;51.118;17.058;2022-07-29T08:37:18;24.80;56.40
23271;DHT22;11804;51.118;17.058;2022-07-29T08:39:46;24.30;57.00
23271;DHT22;11804;51.118;17.058;2022-07-29T08:42:14;24.30;57.80
23271;DHT22;11804;51.118;17.058;2022-07-29T08:44:44;24.30;58.00
23271;DHT22;11804;51.118;17.058;2022-07-29T08:47:16;24.80;56.40
23271;DHT22;11804;51.118;17.058;2022-07-29T08:49:44;24.90;56.30
23271;DHT22;11804;51.118;17.058;2022-07-29T08:52:14;24.50;56.80
23271;DHT22;11804;51.118;17.058;2022-07-29T08:54:44;24.70;57.10
23271;DHT22;11804;51.118;17.058;2022-07-29T08:57:13;24.80;56.50
23271;DHT22;11804;51.118;17.058;2022-07-29T08:59:43;24.90;56.70
23271;DHT22;11804;51.118;17.058;2022-07-29T09:02:18;24.90;56.20
23271;DHT22;11804;51.118;17.058;2022-07-29T09:04:42;24.90;56.60
23271;DHT22;11804;51.118;17.058;2022-07-29T09:07:10;25.40;55.60
23271;DHT22;11804;51.118;17.058;2022-07-29T09:09:40;25.50;54.70
23271;DHT22;11804;51.118;17.058;2022-07-29T09:12:10;25.40;54.70
23271;DHT22;11804;51.118;17.058;2022-07-29T09:14:38;25.00;55.40
23271;DHT22;11804;51.118;17.058;2022-07-29T09:17:07;25.10;56.10
23271;DHT22;11804;51.118;17.058;2022-07-29T09:19:37;25.40;55.00
23271;DHT22;11804;51.118;17.058;2022-07-29T09:22:06;25.00;56.20
23271;DHT22;11804;51.118;17.058;2022-07-29T09:24:44;25.40;55.50
23271;DHT22;11804;51.118;17.058;2022-07-29T09:27:20;25.40;54.50
23271;DHT22;11804;51.118;17.058;2022-07-29T09:29:59;24.90;55.90
23271;DHT22;11804;51.118;17.058;2022-07-29T09:32:29;25.40;55.00
23271;DHT22;11804;51.118;17.058;2022-07-29T09:35:17;25.70;54.20
23271;DHT22;11804;51.118;17.058;2022-07-29T09:37:45;25.50;54.20
23271;DHT22;11804;51.118;17.058;2022-07-29T09:40:17;25.20;55.10
23271;DHT22;11804;51.118;17.058;2022-07-29T09:42:46;25.10;55.70
23271;DHT22;11804;51.118;17.058;2022-07-29T09:45:31;25.20;55.50
23271;DHT22;11804;51.118;17.058;2022-07-29T09:48:12;25.10;55.80
23271;DHT22;11804;51.118;17.058;2022-07-29T09:50:41;25.00;55.90
23271;DHT22;11804;51.118;17.058;2022-07-29T09:53:10;25.00;56.20
23271;DHT22;11804;51.118;17.058;2022-07-29T09:55:49;25.10;56.30
23271;DHT22;11804;51.118;17.058;2022-07-29T09:58:18;25.10;56.10
23271;DHT22;11804;51.118;17.058;2022-07-29T10:00:48;24.90;56.50
23271;DHT22;11804;51.118;17.058;2022-07-29T10:03:17;25.10;56.40
23271;DHT22;11804;51.118;17.058;2022-07-29T10:05:46;25.10;55.80
23271;DHT22;11804;51.118;17.058;2022-07-29T10:08:24;24.90;55.80
23271;DHT22;11804;51.118;17.058;2022-07-29T10:10:46;24.80;56.80
23271;DHT22;11804;51.118;17.058;2022-07-29T10:13:14;25.00;56.50
23271;DHT22;11804;51.118;17.058;2022-07-29T10:15:44;24.90;55.90
23271;DHT22;11804;51.118;17.058;2022-07-29T10:18:14;25.10;55.90
23271;DHT22;11804;51.118;17.058;2022-07-29T10:20:43;25.10;56.40
23271;DHT22;11804;51.118;17.058;2022-07-29T10:23:11;25.00;56.40
23271;DHT22;11804;51.118;17.058;2022-07-29T10:25:41;24.90;56.20
23271;DHT22;11804;51.118;17.058;2022-07-29T10:28:09;25.10;56.60
23271;DHT22;11804;51.118;17.058;2022-07-29T10:30:37;25.30;55.40
23271;DHT22;11804;51.118;17.058;2022-07-29T10:33:18;25.40;55.00
23271;DHT22;11804;51.118;17.058;2022-07-29T10:44:21;25.70;54.70
23271;DHT22;11804;51.118;17.058;2022-07-29T10:46:50;26.20;53.90
23271;DHT22;11804;51.118;17.058;2022-07-29T10:49:24;26.20;53.60
23271;DHT22;11804;51.118;17.058;2022-07-29T10:52:04;26.40;53.20
23271;DHT22;11804;51.118;17.058;2022-07-29T10:57:26;26.00;53.20
23271;DHT22;11804;51.118;17.058;2022-07-29T11:02:42;25.60;54.50
23271;DHT22;11804;51.118;17.058;2022-07-29T11:05:14;25.70;55.40
23271;DHT22;11804;51.118;17.058;2022-07-29T11:10:45;25.90;54.10
23271;DHT22;11804;51.118;17.058;2022-07-29T11:13:28;25.90;54.50
23271;DHT22;11804;51.118;17.058;2022-07-29T11:15:58;25.80;54.70
23271;DHT22;11804;51.118;17.058;2022-07-29T11:18:25;25.50;55.60
23271;DHT22;11804;51.118;17.058;2022-07-29T11:20:53;25.50;55.50
23271;DHT22;11804;51.118;17.058;2022-07-29T11:29:08;26.30;54.10
23271;DHT22;11804;51.118;17.058;2022-07-29T11:31:45;26.40;54.50
23271;DHT22;11804;51.118;17.058;2022-07-29T11:39:44;26.20;54.00
23271;DHT22;11804;51.118;17.058;2022-07-29T11:45:16;25.80;55.10
23271;DHT22;11804;51.118;17.058;2022-07-29T11:47:49;26.10;54.60
23271;DHT22;11804;51.118;17.058;2022-07-29T11:50:29;26.00;54.50
23271;DHT22;11804;51.118;17.058;2022-07-29T11:52:57;26.10;54.00
23271;DHT22;11804;51.118;17.058;2022-07-29T11:55:25;26.20;53.70
23271;DHT22;11804;51.118;17.058;2022-07-29T11:58:00;26.20;53.70
23271;DHT22;11804;51.118;17.058;2022-07-29T12:03:02;26.00;54.50
23271;DHT22;11804;51.118;17.058;2022-07-29T12:05:40;26.00;54.50
23271;DHT22;11804;51.118;17.058;2022-07-29T12:08:11;25.70;54.70
23271;DHT22;11804;51.118;17.058;2022-07-29T12:10:39;25.70;55.10
23271;DHT22;11804;51.118;17.058;2022-07-29T12:13:08;25.90;55.10
23271;DHT22;11804;51.118;17.058;2022-07-29T12:15:36;25.60;55.80
23271;DHT22;11804;51.118;17.058;2022-07-29T12:18:18;25.90;55.50
23271;DHT22;11804;51.118;17.058;2022-07-29T12:20:47;26.20;54.10
23271;DHT22;11804;51.118;17.058;2022-07-29T12:23:15;26.20;54.20
23271;DHT22;11804;51.118;17.058;2022-07-29T12:25:44;26.20;54.10
23271;DHT22;11804;51.118;17.058;2022-07-29T12:28:13;26.40;54.10
23271;DHT22;11804;51.118;17.058;2022-07-29T12:30:49;26.40;54.00
23271;DHT22;11804;51.118;17.058;2022-07-29T12:33:24;26.20;54.00
23271;DHT22;11804;51.118;17.058;2022-07-29T12:36:00;26.10;54.50
23271;DHT22;11804;51.118;17.058;2022-07-29T12:38:24;26.30;53.80
23271;DHT22;11804;51.118;17.058;2022-07-29T12:40:53;26.20;54.00
23271;DHT22;11804;51.118;17.058;2022-07-29T12:43:23;26.40;53.70
23271;DHT22;11804;51.118;17.058;2022-07-29T12:45:54;26.20;53.70
23271;DHT22;11804;51.118;17.058;2022-07-29T12:48:36;25.90;54.90
23271;DHT22;11804;51.118;17.058;2022-07-29T12:51:06;25.80;55.40
23271;DHT22;11804;51.118;17.058;2022-07-29T12:53:36;25.90;55.20
23271;DHT22;11804;51.118;17.058;2022-07-29T12:56:05;26.00;55.10
23271;DHT22;11804;51.118;17.058;2022-07-29T12:58:38;26.00;55.10
23271;DHT22;11804;51.118;17.058;2022-07-29T13:01:12;25.70;55.70
23271;DHT22;11804;51.118;17.058;2022-07-29T13:03:49;25.90;55.50
23271;DHT22;11804;51.118;17.058;2022-07-29T13:06:40;25.90;55.80
23271;DHT22;11804;51.118;17.058;2022-07-29T13:09:16;26.30;55.30
23271;DHT22;11804;51.118;17.058;2022-07-29T13:11:52;26.60;54.40
23271;DHT22;11804;51.118;17.058;2022-07-29T13:14:34;26.60;54.00
23271;DHT22;11804;51.118;17.058;2022-07-29T13:17:17;26.20;54.60
23271;DHT22;11804;51.118;17.058;2022-07-29T13:19:50;26.40;54.60
23271;DHT22;11804;51.118;17.058;2022-07-29T13:22:22;26.30;54.50
23271;DHT22;11804;51.118;17.058;2022-07-29T13:25:00;26.30;54.70
23271;DHT22;11804;51.118;17.058;2022-07-29T13:27:27;26.20;55.10
23271;DHT22;11804;51.118;17.058;2022-07-29T13:29:56;26.10;55.00
23271;DHT22;11804;51.118;17.058;2022-07-29T13:32:27;26.10;55.00
23271;DHT22;11804;51.118;17.058;2022-07-29T13:34:56;26.30;54.30
23271;DHT22;11804;51.118;17.058;2022-07-29T13:37:24;26.20;54.70
23271;DHT22;11804;51.118;17.058;2022-07-29T13:39:52;26.40;54.20
23271;DHT22;11804;51.118;17.058;2022-07-29T13:42:20;26.60;54.10
23271;DHT22;11804;51.118;17.058;2022-07-29T13:44:48;26.50;54.40
23271;DHT22;11804;51.118;17.058;2022-07-29T13:47:18;26.30;55.30
23271;DHT22;11804;51.118;17.058;2022-07-29T13:49:46;26.30;55.40
23271;DHT22;11804;51.118;17.058;2022-07-29T13:52:14;26.30;55.20
23271;DHT22;11804;51.118;17.058;2022-07-29T13:54:43;26.50;55.00
23271;DHT22;11804;51.118;17.058;2022-07-29T13:57:11;26.80;54.50
23271;DHT22;11804;51.118;17.058;2022-07-29T13:59:40;26.70;54.00
23271;DHT22;11804;51.118;17.058;2022-07-29T14:02:09;26.70;54.40
23271;DHT22;11804;51.118;17.058;2022-07-29T14:04:38;27.00;53.90
23271;DHT22;11804;51.118;17.058;2022-07-29T14:07:07;26.90;53.80
23271;DHT22;11804;51.118;17.058;2022-07-29T14:09:35;26.90;53.90
23271;DHT22;11804;51.118;17.058;2022-07-29T14:12:03;26.90;53.90
23271;DHT22;11804;51.118;17.058;2022-07-29T14:14:30;26.60;54.60
23271;DHT22;11804;51.118;17.058;2022-07-29T14:16:59;26.60;54.90
23271;DHT22;11804;51.118;17.058;2022-07-29T14:19:27;26.20;55.20
23271;DHT22;11804;51.118;17.058;2022-07-29T14:21:54;26.30;55.70
23271;DHT22;11804;51.118;17.058;2022-07-29T14:24:22;26.40;55.50
23271;DHT22;11804;51.118;17.058;2022-07-29T14:26:49;26.60;55.20
23271;DHT22;11804;51.118;17.058;2022-07-29T14:29:17;26.40;55.60
23271;DHT22;11804;51.118;17.058;2022-07-29T14:31:44;26.30;56.20
23271;DHT22;11804;51.118;17.058;2022-07-29T14:34:12;26.30;55.90
23271;DHT22;11804;51.118;17.058;2022-07-29T14:36:41;26.40;55.50
23271;DHT22;11804;51.118;17.058;2022-07-29T14:39:09;26.40;55.30
23271;DHT22;11804;51.118;17.058;2022-07-29T14:41:36;26.50;55.30
23271;DHT22;11804;51.118;17.058;2022-07-29T14:44:04;26.50;55.40
23271;DHT22;11804;51.118;17.058;2022-07-29T14:46:32;26.40;55.70
23271;DHT22;11804;51.118;17.058;2022-07-29T14:48:59;26.20;56.10
23271;DHT22;11804;51.118;17.058;2022-07-29T14:51:27;26.10;56.20
23271;DHT22;11804;51.118;17.058;2022-07-29T14:53:54;26.20;56.40
23271;DHT22;11804;51.118;17.058;2022-07-29T14:56:22;26.40;56.10
23271;DHT22;11804;51.118;17.058;2022-07-29T14:58:50;26.50;55.70
23271;DHT22;11804;51.118;17.058;2022-07-29T15:01:17;26.70;55.50
23271;DHT22;11804;51.118;17.058;2022-07-29T15:03:45;26.50;55.70
23271;DHT22;11804;51.118;17.058;2022-07-29T15:06:12;26.60;55.40
23271;DHT22;11804;51.118;17.058;2022-07-29T15:08:40;26.80;55.20
23271;DHT22;11804;51.118;17.058;2022-07-29T15:11:08;26.70;55.20
23271;DHT22;11804;51.118;17.058;2022-07-29T15:13:35;26.40;55.90
23271;DHT22;11804;51.118;17.058;2022-07-29T15:16:05;26.00;57.00
23271;DHT22;11804;51.118;17.058;2022-07-29T15:18:33;25.90;57.40
23271;DHT22;11804;51.118;17.058;2022-07-29T15:21:00;26.00;57.10
23271;DHT22;11804;51.118;17.058;2022-07-29T15:23:28;25.80;57.60
23271;DHT22;11804;51.118;17.058;2022-07-29T15:25:56;25.80;57.80
23271;DHT22;11804;51.118;17.058;2022-07-29T15:28:23;25.90;57.60
23271;DHT22;11804;51.118;17.058;2022-07-29T15:30:51;25.80;57.20
23271;DHT22;11804;51.118;17.058;2022-07-29T15:33:19;25.80;57.30
23271;DHT22;11804;51.118;17.058;2022-07-29T15:35:47;25.80;57.40
23271;DHT22;11804;51.118;17.058;2022-07-29T15:38:16;25.90;57.50
23271;DHT22;11804;51.118;17.058;2022-07-29T15:40:43;25.90;57.40
23271;DHT22;11804;51.118;17.058;2022-07-29T15:43:12;25.90;58.50
23271;DHT22;11804;51.118;17.058;2022-07-29T15:45:42;26.00;57.80
23271;DHT22;11804;51.118;17.058;2022-07-29T15:48:28;26.10;57.80
23271;DHT22;11804;51.118;17.058;2022-07-29T15:50:55;26.00;58.00
23271;DHT22;11804;51.118;17.058;2022-07-29T15:53:23;26.00;57.90
23271;DHT22;11804;51.118;17.058;2022-07-29T15:55:51;25.90;58.20
23271;DHT22;11804;51.118;17.058;2022-07-29T15:58:19;25.90;58.30
23271;DHT22;11804;51.118;17.058;2022-07-29T16:00:47;25.90;58.40
23271;DHT22;11804;51.118;17.058;2022-07-29T16:03:15;25.70;58.60
23271;DHT22;11804;51.118;17.058;2022-07-29T16:05:43;25.70;59.00
23271;DHT22;11804;51.118;17.058;2022-07-29T16:08:10;25.70;59.30
23271;DHT22;11804;51.118;17.058;2022-07-29T16:10:38;25.70;59.10
23271;DHT22;11804;51.118;17.058;2022-07-29T16:13:06;25.70;58.90